• Join FlightAware (Why Join?)
  • Login
  • US Flag 
09:58PM EST


 

Airport Tracker/Info


-or-


 

Live Flight TrackerFlight Track Log ✈ JAI365 ✈ 10-Apr-2013 ✈ VIDP / DEL - VAPO / PNQ

Flight Track Log - Related Links

Times and Time Zones

All times are in EDT time to prevent confusion due to time zone crossing. See the JAI365 flight status page for this flight to view local times or setup timezone preferences in your user account.

Time Position Orientation Groundspeed Altitude Reporting Facility
EDT Latitude Longitude Course Direction KTS MPH feet Rate Location/Type
12:24AM 28.4830 77.0050 186° South 275 316 3,400  Level FlightAware
12:24AM 28.4510 77.0060 178° South 261 300 5,200 2,580 Climbing FlightAware
12:25AM 28.3960 77.0030 183° South 294 338 6,200 1,200 Climbing FlightAware
12:25AM 28.3590 76.9910 196° South 287 330 6,600 1,500 Climbing FlightAware
12:26AM 28.3290 76.9780 201° Southwest 290 334 7,600 3,120 Climbing FlightAware
12:26AM 28.2920 76.9510 213° Southwest 288 331 9,500 2,820 Climbing FlightAware
12:27AM 28.2360 76.9070 215° Southwest 317 365 11,400 2,760 Climbing FlightAware
12:28AM 28.1870 76.8630 218° Southwest 325 374 13,700 3,840 Climbing FlightAware
12:28AM 28.1470 76.8280 218° Southwest 311 358 16,200 3,120 Climbing FlightAware
12:29AM 28.0900 76.7780 218° Southwest 332 382 18,200 2,280 Climbing FlightAware
12:30AM 28.0320 76.7430 208° Southwest 354 407 19,700 1,860 Climbing FlightAware
12:31AM 27.9490 76.6980 206° Southwest 365 420 21,200 2,520 Climbing FlightAware
12:31AM 27.8830 76.6610 206° Southwest 378 435 23,900 3,060 Climbing FlightAware
12:32AM 27.8130 76.6230 206° Southwest 386 444 25,600 1,620 Climbing FlightAware
12:33AM 27.7570 76.5930 205° Southwest 387 445 26,100 2,100 Climbing FlightAware
12:34AM 27.6720 76.5460 206° Southwest 402 463 28,600 2,040 Climbing FlightAware
12:34AM 27.6090 76.5130 205° Southwest 404 465 29,000 1,920 Climbing FlightAware
12:35AM 27.5280 76.4680 206° Southwest 406 467 31,400 2,100 Climbing FlightAware
12:36AM 27.4660 76.4340 206° Southwest 402 463 32,000 1,620 Climbing FlightAware
12:36AM 27.3920 76.3940 206° Southwest 394 453 33,700 2,220 Climbing FlightAware
12:37AM 27.3180 76.3540 206° Southwest 379 436 35,400 2,100 Climbing FlightAware
12:38AM 27.2580 76.3210 206° Southwest 376 433 36,500 1,320 Climbing FlightAware
12:38AM 27.2010 76.2910 205° Southwest 381 438 37,100 420 Climbing FlightAware
12:39AM 27.1350 76.2560 205° Southwest 381 438 37,100  Level FlightAware
12:40AM 27.0810 76.2270 206° Southwest 381 438 37,100  Level FlightAware
12:41AM 27.0130 76.1920 205° Southwest 381 438 37,100 -300 Level FlightAware
12:43AM 26.8356 76.1409 194° South  Level Estimated
12:44AM 26.7397 76.1134 194° South  Level Estimated
12:45AM 26.6438 76.0859 194° South  Level Estimated
12:46AM 26.5479 76.0584 194° South  Level Estimated
12:47AM 26.4520 76.0310 194° South  Level Estimated
12:48AM 26.3561 76.0037 194° South  Level Estimated
12:49AM 26.2601 75.9764 194° South  Level Estimated
12:50AM 26.1642 75.9491 194° South  Level Estimated
12:51AM 26.0683 75.9219 194° South  Level Estimated
12:52AM 25.9723 75.8947 194° South  Level Estimated
12:53AM 25.8764 75.8676 194° South  Level Estimated
12:54AM 25.7804 75.8405 194° South  Level Estimated
12:55AM 25.6845 75.8134 194° South  Level Estimated
12:56AM 25.5885 75.7864 194° South  Level Estimated
12:57AM 25.4925 75.7595 194° South  Level Estimated
12:58AM 25.3965 75.7325 194° South  Level Estimated
12:59AM 25.3006 75.7057 194° South  Level Estimated
01:00AM 25.2046 75.6788 194° South  Level Estimated
01:01AM 25.1086 75.6520 194° South  Level Estimated
01:02AM 25.0126 75.6253 194° South  Level Estimated
01:03AM 24.9166 75.5986 194° South  Level Estimated
01:04AM 24.8206 75.5719 194° South  Level Estimated
01:05AM 24.7246 75.5453 194° South  Level Estimated
01:06AM 24.6286 75.5187 194° South  Level Estimated
01:07AM 24.5326 75.4922 194° South  Level Estimated
01:08AM 24.4366 75.4657 194° South  Level Estimated
01:09AM 24.3406 75.4392 194° South  Level Estimated
01:10AM 24.2445 75.4128 194° South  Level Estimated
01:11AM 24.1485 75.3864 194° South  Level Estimated
01:12AM 24.0525 75.3601 194° South  Level Estimated
01:13AM 23.9564 75.3338 194° South  Level Estimated
01:14AM 23.8604 75.3075 194° South  Level Estimated
01:15AM 23.7643 75.2813 194° South  Level Estimated
01:16AM 23.6683 75.2551 194° South  Level Estimated
01:17AM 23.5722 75.2290 194° South  Level Estimated
01:18AM 23.4762 75.2029 194° South  Level Estimated
01:19AM 23.3801 75.1768 194° South  Level Estimated
01:20AM 23.2840 75.1508 194° South  Level Estimated
01:21AM 23.1955 75.1268 194° South  Level Estimated
01:22AM 23.1070 75.1029 194° South  Level Estimated
01:23AM 23.0185 75.0790 194° South  Level Estimated
01:24AM 22.9300 75.0552 194° South  Level Estimated
01:25AM 22.8415 75.0314 194° South  Level Estimated
01:26AM 22.7530 75.0076 194° South  Level Estimated
01:27AM 22.6645 74.9838 194° South  Level Estimated
01:28AM 22.5760 74.9601 194° South  Level Estimated
01:29AM 22.4875 74.9364 194° South  Level Estimated
01:30AM 22.3989 74.9128 194° South  Level Estimated
01:31AM 22.3104 74.8891 194° South  Level Estimated
01:32AM 22.2219 74.8655 194° South  Level Estimated
01:33AM 22.1334 74.8420 194° South  Level Estimated
01:34AM 22.0448 74.8184 194° South  Level Estimated
01:35AM 21.9563 74.7949 194° South  Level Estimated
01:36AM 21.8677 74.7714 194° South  Level Estimated
01:37AM 21.7792 74.7479 194° South  Level Estimated
01:38AM 21.6906 74.7245 194° South  Level Estimated
01:39AM 21.6021 74.7011 194° South  Level Estimated
01:40AM 21.5135 74.6777 194° South  Level Estimated
01:41AM 21.4250 74.6544 194° South  Level Estimated
01:42AM 21.3364 74.6311 194° South  Level Estimated
01:43AM 21.2478 74.6078 194° South  Level Estimated
01:44AM 21.1593 74.5845 194° South  Level Estimated
01:45AM 21.0707 74.5613 194° South  Level Estimated
01:46AM 20.9821 74.5381 194° South  Level Estimated
01:47AM 20.8935 74.5150 194° South  Level Estimated
01:48AM 20.8050 74.4918 194° South  Level Estimated
01:49AM 20.7164 74.4687 194° South  Level Estimated
01:50AM 20.6278 74.4456 194° South  Level Estimated
01:51AM 20.5392 74.4225 194° South  Level Estimated
01:52AM 20.4506 74.3995 194° South  Level Estimated
01:53AM 20.3620 74.3765 194° South  Level Estimated
01:54AM 20.2734 74.3535 194° South  Level Estimated
01:54AM 19.1720 73.4520 194° South 345 397 16,600  Level FlightAware
01:54AM 19.1080 73.4460 185° South 345 397 16,600  Level FlightAware
01:55AM 19.0540 73.4410 185° South 345 397 16,600  Level FlightAware
01:56AM 19.0000 73.4360 185° South 345 397 16,600  Level FlightAware
01:56AM 18.9460 73.4310 185° South 345 397 16,600  Level FlightAware
01:57AM 18.8790 73.4250 185° South 345 397 16,600 -2,760 Level FlightAware
01:59AM 18.7460 73.5560 137° Southeast 326 375 10,000 -3,180 Descending FlightAware
01:59AM 18.7420 73.6020 95° East 290 334 10,000  Level FlightAware
01:59AM 18.7410 73.6240 93° East 274 315 10,000  Level FlightAware
02:00AM 18.7390 73.6580 94° East 265 305 10,000  Level FlightAware
02:01AM 18.7360 73.7150 93° East 263 303 10,000  Level FlightAware
02:01AM 18.7350 73.7480 92° East 262 302 10,000 -900 Level FlightAware
02:02AM 18.7330 73.7870 93° East 265 305 9,200 -1,500 Descending FlightAware
02:02AM 18.7320 73.8050 93° East 265 305 8,900 -1,080 Descending FlightAware
02:02AM 18.7310 73.8370 92° East 256 295 8,500 -660 Descending FlightAware
02:03AM 18.7300 73.8720 92° East 236 272 8,300 -600 Descending FlightAware
02:03AM 18.7280 73.9170 93° East 224 258 7,800 -780 Descending FlightAware
02:04AM 18.7270 73.9420 92° East 221 254 7,500 -1,020 Descending FlightAware
02:04AM 18.7250 73.9750 94° East 222 255 6,900 -1,140 Descending FlightAware
02:05AM 18.7210 74.0090 97° East 223 257 6,400 -960 Descending FlightAware
02:05AM 18.7150 74.0200 120° Southeast 224 258 6,200 -720 Descending FlightAware
02:05AM 18.7040 74.0410 119° Southeast 224 258 6,000 -780 Descending FlightAware
02:06AM 18.6850 74.0760 120° Southeast 227 261 5,500 -780 Descending FlightAware
02:06AM 18.6700 74.1040 119° Southeast 225 259 5,200 -600 Descending FlightAware
02:07AM 18.6570 74.1270 121° Southeast 222 255 5,000 -300 Descending FlightAware
02:07AM 18.6500 74.1400 120° Southeast 222 255 5,000 -180 Level FlightAware
02:08AM 18.6370 74.1630 121° Southeast 221 254 4,900 -480 Descending FlightAware
02:08AM 18.6220 74.1910 119° Southeast 226 260 4,600 -720 Descending FlightAware
02:09AM 18.5980 74.2150 137° Southeast 224 258 4,200 -780 Descending FlightAware
02:09AM 18.5910 74.2160 172° South 224 258 4,100 -180 Descending FlightAware
02:09AM 18.5560 74.1970 207° Southwest 222 255 4,100 120 Level FlightAware
02:09AM 18.5460 74.1950 191° South 221 254 4,200 720 Climbing FlightAware
02:10AM 18.5180 74.2090 155° Southeast 225 259 4,600 840 Climbing FlightAware
02:10AM 18.5000 74.2260 138° Southeast 225 259 5,000 600 Climbing FlightAware
02:11AM 18.4860 74.2370 143° Southeast 226 260 5,000  Level FlightAware
02:11AM 18.4630 74.2580 139° Southeast 226 260 5,000  Level FlightAware
02:12AM 18.4430 74.2750 141° Southeast 227 261 5,000  Level FlightAware
02:12AM 18.4190 74.2970 139° Southeast 225 259 5,000  Level FlightAware
02:13AM 18.3930 74.3200 140° Southeast 224 258 5,000  Level FlightAware
02:14AM 18.3680 74.2610 246° West 223 257 5,000  Level FlightAware
02:14AM 18.3810 74.2500 321° Northwest 221 254 5,000  Level FlightAware
02:15AM 18.4120 74.2250 323° Northwest 221 254 5,000  Level FlightAware
02:15AM 18.4340 74.2080 324° Northwest 220 253 5,000  Level FlightAware
02:15AM 18.4450 74.2000 325° Northwest 219 252 5,000 -420 Level FlightAware
02:16AM 18.4690 74.1810 323° Northwest 219 252 4,700 -660 Descending FlightAware
02:16AM 18.4900 74.1650 324° Northwest 219 252 4,400 -780 Descending FlightAware
02:16AM 18.5030 74.1560 327° Northwest 216 249 4,200 -840 Descending FlightAware
02:17AM 18.5270 74.1370 323° Northwest 214 246 3,800 -480 Descending FlightAware
02:17AM 18.5460 74.1230 325° Northwest 215 247 3,800  Level FlightAware
02:18AM 18.5590 74.1130 324° Northwest 203 234 3,800  Level FlightAware
02:18AM 18.5760 74.0980 320° Northwest 176 203 3,800  Level FlightAware
02:18AM 18.5810 74.0890 300° West 165 190 3,800 -240 Level FlightAware
02:18AM 18.5820 74.0820 279° West 165 190 3,700  Descending FlightAware
02:19AM 18.5820 74.0640 270° West 162 186 3,800  Climbing FlightAware
02:19AM 18.5820 74.0470 270° West 146 168 3,700 -360 Descending FlightAware
02:20AM 18.5830 74.0150 272° West 141 162 3,400 -480 Descending FlightAware
02:20AM 18.5830 74.0010 270° West 143 165 3,200 -600 Descending FlightAware
02:21AM 18.5820 73.9760 268° West 141 162 2,900 -600 Descending FlightAware
02:21AM 18.5810 73.9650 265° West 147 169 2,700 -900 Descending FlightAware
02:22AM 18.5810 73.9380 270° West 150 173 2,100 -900 Descending FlightAware